Flight Track Log - Related Links

Times and Time Zones

All times are in EDT time to prevent confusion due to time zone crossing. See the SKW2980 flight status page for this flight to view local times or setup timezone preferences in your user account.

Time Position Orientation Groundspeed Altitude Reporting Facility
EDT Latitude Longitude Course Direction KTS MPH feet Rate Location/Type
Sat 01:06:46 AM 33.4333 -111.9833 90° East 166 191 1,800  Level Phoenix TRACON
Sat 01:07:40 AM 33.4333 -111.9333 90° East 175 201 3,300 1,651 Climbing Phoenix TRACON
Sat 01:08:35 AM 33.4333 -111.8667 90° East 240 276 4,800 1,546 Climbing Phoenix TRACON
Sat 01:09:17 AM 33.4014 -111.8403 145° Southeast 260 299 5,800 2,235 Climbing Albuquerque Center
Sat 01:10:17 AM 33.3522 -111.9050 228° Southwest 273 314 8,600 2,331 Climbing Albuquerque Center
Sat 01:11:18 AM 33.3006 -112.0067 239° Southwest 309 356 10,500 2,033 Climbing Albuquerque Center
Sat 01:12:18 AM 33.2469 -112.1092 238° Southwest 350 403 12,700 1,785 Climbing Albuquerque Center
Sat 01:13:19 AM 33.1947 -112.2106 238° Southwest 367 422 14,100 1,488 Climbing Albuquerque Center
Sat 01:14:19 AM 33.1400 -112.3178 239° Southwest 377 434 15,700 942 Climbing Albuquerque Center
Sat 01:15:20 AM 33.0897 -112.4147 238° Southwest 390 449 16,000 148 Climbing Albuquerque Center
Sat 01:16:21 AM 33.0311 -112.5289 239° Southwest 403 464 16,000  Level Albuquerque Center
Sat 01:17:21 AM 32.9719 -112.6439 239° Southwest 408 470 16,000  Level Albuquerque Center
Sat 01:18:22 AM 32.9436 -112.7733 255° West 406 467 16,000  Level Albuquerque Center
Sat 01:19:22 AM 32.9222 -112.9322 261° West 408 470 16,000  Level Albuquerque Center
Sat 01:20:23 AM 32.9033 -113.0647 260° West 410 472 16,000  Level Albuquerque Center
Sat 01:21:23 AM 32.8856 -113.1975 261° West 410 472 16,000 -50 Level Albuquerque Center
Sat 01:22:24 AM 32.8675 -113.3308 261° West 410 472 15,900 -50 Descending Albuquerque Center
Sat 01:23:24 AM 32.8489 -113.4642 261° West 412 474 15,900  Level Albuquerque Center
Sat 01:24:25 AM 32.8303 -113.5969 261° West 411 473 15,900  Level Albuquerque Center
Sat 01:25:25 AM 32.8111 -113.7303 260° West 411 473 15,900 -248 Level Albuquerque Center
Sat 01:26:26 AM 32.7914 -113.8617 260° West 409 471 15,400 -744 Descending Albuquerque Center
Sat 01:27:26 AM 32.7744 -113.9881 261° West 401 461 14,400 -1,240 Descending Albuquerque Center
Sat 01:28:27 AM 32.7717 -114.1028 268° West 376 433 12,900 -1,615 Descending Albuquerque Center
Sat 01:28:44 AM 32.7744 -114.1317 277° West 357 411 12,300 -2,000 Descending Los Angeles Center
Sat 01:29:45 AM 32.7747 -114.2350 270° West 324 373 10,300 -1,967 Descending Los Angeles Center
Sat 01:30:46 AM 32.7733 -114.3286 269° West 291 335 8,300 -2,160 Descending Los Angeles Center
Sat 01:31:50 AM 32.7697 -114.4358 268° West 259 298 5,800 -2,115 Descending Los Angeles Center
Sat 01:32:48 AM 32.7703 -114.5144 271° West 256 295 4,000 -1,600 Descending Los Angeles Center
Sat 01:33:50 AM 32.7547 -114.5828 255° West 221 254 2,600 -1,355 Descending Los Angeles Center

Login

Don't have an account? Register now (free) for customized features, flight alerts, and more!